CST,Max TemperatureF,Mean TemperatureF,Min TemperatureF,Max Dew PointF,MeanDew PointF,Min DewpointF,Max Humidity, Mean Humidity, Min Humidity, Max Sea Level PressureIn, Mean Sea Level PressureIn, Min Sea Level PressureIn, Max VisibilityMiles, Mean VisibilityMiles, Min VisibilityMiles, Max Wind SpeedMPH, Mean Wind SpeedMPH, Max Gust SpeedMPH,PrecipitationIn, CloudCover, Events, WindDirDegrees
2012-12-1,53,40,26,46,38,27,100,93,62,29.94,29.80,29.71,9,3,0,20,11,24,0.00,3,Fog,189
2012-12-2,60,42,24,43,34,25,100,81,45,29.98,29.87,29.73,10,7,0,20,6,22,0.00,0,,154
2012-12-3,57,44,32,50,36,21,100,72,36,30.03,29.76,29.56,10,7,0,28,17,37,0.00,3,Fog,248
2012-12-4,46,35,24,27,22,16,74,62,43,30.33,30.19,30.03,10,10,7,13,7,13,0.00,1,,316
2012-12-5,50,36,21,28,21,14,74,56,37,30.33,30.06,29.80,10,10,10,29,17,36,0.00,0,,143
2012-12-6,44,38,33,37,31,27,87,70,61,30.00,29.94,29.86,10,10,10,20,12,26,0.00,5,,339
2012-12-7,33,30,28,28,26,21,100,85,64,30.01,29.97,29.92,10,8,1,14,7,20,0.00,7,Snow,57
2012-12-8,33,30,28,34,29,27,100,98,93,30.00,29.93,29.82,10,6,2,21,8,28,0.00,7,Rain-Snow,130
2012-12-9,33,22,12,34,21,3,100,91,67,30.04,29.87,29.77,10,6,2,30,19,39,0.00,8,Rain-Snow,269
2012-12-10,23,12,0,16,3,-8,79,70,58,30.04,29.93,29.80,10,10,10,23,13,29,0.00,3,,252
2012-12-11,37,27,17,25,20,14,93,81,56,29.90,29.87,29.81,10,10,10,17,9,22,0.00,4,,233
2012-12-12,48,36,23,21,19,18,86,51,30,29.89,29.84,29.78,10,10,10,28,16,34,0.00,0,,188
2012-12-13,39,30,19,23,20,18,100,63,45,30.07,29.96,29.84,10,9,5,18,12,25,0.00,0,,228
2012-12-14,50,34,19,34,26,19,100,72,46,30.06,29.86,29.61,10,8,5,20,10,22,0.00,1,,125
2012-12-15,42,36,30,41,38,30,100,98,70,29.66,29.54,29.47,10,4,1,20,11,24,0.39,8,Rain-Snow,334
2012-12-16,28,24,19,28,21,16,100,94,86,29.79,29.75,29.67,10,8,2,15,10,20,0.00,6,,345
2012-12-17,30,26,21,30,25,21,100,99,93,29.77,29.68,29.59,10,6,2,13,6,14,0.00,8,Snow,130
2012-12-18,32,28,23,32,30,23,100,99,93,29.83,29.64,29.47,7,4,0,16,10,21,0.01,7,Rain-Snow,238
2012-12-19,35,27,19,32,26,19,100,95,80,29.96,29.90,29.83,10,6,0,23,4,29,0.00,6,Fog-Rain-Snow,18
2012-12-20,21,14,8,19,13,3,100,87,79,30.15,29.99,29.88,10,7,1,28,21,38,0.00,5,Rain-Snow,331
2012-12-21,21,10,0,16,7,-4,93,80,68,30.28,30.20,30.12,10,10,7,15,7,18,0.00,0,,189
2012-12-22,26,18,10,21,14,7,93,83,68,30.11,29.99,29.92,10,9,8,15,10,20,0.00,0,,2
2012-12-23,17,12,6,16,9,3,93,87,85,30.05,30.01,29.97,10,9,6,15,8,21,0.00,6,Snow,30
2012-12-24,14,6,-2,12,4,-9,93,81,67,30.30,30.10,29.96,10,9,4,20,11,24,0.00,6,Rain-Snow,337
2012-12-25,8,2,-4,1,-3,-9,85,78,71,30.46,30.39,30.30,10,10,10,14,9,,0.00,3,,344
2012-12-26,14,6,-2,14,2,-8,100,80,67,30.34,30.23,30.14,10,10,3,13,6,,0.00,7,,48
2012-12-27,19,16,12,19,15,10,100,94,86,30.16,30.07,30.01,10,6,1,16,11,,0.00,8,Snow,101
2012-12-28,19,10,1,19,13,-2,100,92,85,30.06,30.00,29.97,9,5,0,14,10,,0.00,7,Rain-Snow,17
2012-12-29,14,8,3,12,6,0,100,91,85,30.16,30.10,30.05,9,5,0,13,8,15,0.00,6,Fog-Rain-Snow,258
2012-12-30,32,16,0,23,12,-4,100,85,69,30.16,30.01,29.86,10,10,7,21,8,25,0.00,0,Snow,196
2012-12-31,21,7,-7,18,6,-13,93,82,73,30.24,30.16,30.05,10,10,9,14,8,18,0.00,4,Rain-Snow,349